Time;durP1;ratioP1;P1;durP2;ratioP2;P2;SDS_P1;SDS_P2;PMS_P1;PMS_P2;Temp;Humidity;BMP_temperature;BMP_pressure;BME280_temperature;BME280_humidity;BME280_pressure;Samples;Min_cycle;Max_cycle;Signal;HPM_P1;HPM_P2
2023/06/15 05:22:57;;;;;;;;;;;;;;;22.62;42.39;96814.13;4239004;27;10352;-62
2023/06/15 05:25:00;;;;;;;;;;;;;;;22.93;42.08;96814.94;4230896;28;5960;-62
2023/06/15 05:27:03;;;;;;;;;;;;;;;23.24;41.97;96827.31;4230874;27;5712;-61
2023/06/15 05:29:06;;;;;;;;;;;;;;;23.51;41.72;96820.75;4235294;27;5683;-61
2023/06/15 05:31:09;;;;;;;;;;;;;;;23.76;41.38;96827.97;4232493;27;5604;-62
2023/06/15 05:33:12;;;;;;;;;;;;;;;23.93;41.31;96822.25;4231856;27;5699;-61
2023/06/15 05:35:15;;;;;;;;;;;;;;;24.02;41.35;96831.38;4229361;27;5727;-63
2023/06/15 05:37:18;;;;;;;;;;;;;;;24.19;41.60;96831.81;4228092;28;6400;-64
2023/06/15 05:39:24;;;;;;;;;;;;;;;24.41;40.95;96833.34;4230045;28;5608;-63
2023/06/15 05:41:27;;;;;;;;;;;;;;;24.62;40.76;96837.53;4231345;28;5536;-63
2023/06/15 05:43:30;;;;;;;;;;;;;;;24.78;40.96;96836.31;4231629;28;5608;-63
2023/06/15 05:45:33;;;;;;;;;;;;;;;24.93;40.65;96847.00;4231032;28;5687;-63
2023/06/15 05:47:36;;;;;;;;;;;;;;;25.05;40.31;96843.16;4231816;28;5712;-64
2023/06/15 05:49:39;;;;;;;;;;;;;;;25.15;40.48;96843.06;4231867;28;5612;-63
2023/06/15 05:51:42;;;;;;;;;;;;;;;25.25;40.42;96851.06;4231735;28;5635;-63
2023/06/15 05:53:44;;;;;;;;;;;;;;;25.38;40.41;96845.00;4231655;28;5703;-63
2023/06/15 05:55:49;;;;;;;;;;;;;;;25.49;40.52;96843.78;4231589;28;5607;-63
2023/06/15 05:57:53;;;;;;;;;;;;;;;25.60;40.38;96849.09;4231665;28;5612;-63
2023/06/15 05:59:56;;;;;;;;;;;;;;;25.70;40.07;96852.50;4214947;28;5093;-63
2023/06/15 06:01:59;;;;;;;;;;;;;;;25.76;40.20;96856.78;4214910;28;5627;-63
2023/06/15 06:04:02;;;;;;;;;;;;;;;25.80;40.26;96852.38;4214605;28;5694;-63
2023/06/15 06:06:05;;;;;;;;;;;;;;;25.88;39.79;96842.00;4216202;28;5710;-64
2023/06/15 06:08:08;;;;;;;;;;;;;;;25.92;39.88;96846.56;4231068;28;5616;-63
2023/06/15 06:10:11;;;;;;;;;;;;;;;25.97;39.92;96848.41;4231682;28;5837;-63
2023/06/15 06:12:15;;;;;;;;;;;;;;;25.99;39.88;96841.59;4230776;28;5844;-64
2023/06/15 06:14:18;;;;;;;;;;;;;;;26.01;39.75;96844.81;4230962;28;5623;-63
2023/06/15 06:16:21;;;;;;;;;;;;;;;26.02;39.61;96849.13;4230707;28;5600;-64
2023/06/15 06:18:24;;;;;;;;;;;;;;;26.05;39.29;96851.28;4231229;28;5608;-63
2023/06/15 06:20:26;;;;;;;;;;;;;;;26.10;39.66;96848.50;4231382;28;5611;-63
2023/06/15 06:22:30;;;;;;;;;;;;;;;26.16;39.59;96857.34;4227807;28;5604;-63
2023/06/15 06:24:33;;;;;;;;;;;;;;;26.18;39.74;96851.66;4220148;28;5720;-63
2023/06/15 06:26:36;;;;;;;;;;;;;;;26.20;39.11;96857.59;4219837;28;5623;-63
2023/06/15 06:28:41;;;;;;;;;;;;;;;26.21;39.28;96853.78;4219639;28;5704;-64
2023/06/15 06:30:44;;;;;;;;;;;;;;;26.19;39.05;96845.94;4220053;28;5832;-64
2023/06/15 06:32:46;;;;;;;;;;;;;;;26.17;39.30;96853.56;4219915;28;5936;-64
2023/06/15 06:34:50;;;;;;;;;;;;;;;26.13;39.23;96842.47;4219784;28;5732;-64
2023/06/15 06:36:53;;;;;;;;;;;;;;;26.12;39.32;96854.41;4219656;28;5857;-64
2023/06/15 06:38:56;;;;;;;;;;;;;;;26.09;39.10;96854.22;4202967;28;5639;-64
2023/06/15 06:41:04;;;;;;;;;;;;;;;26.06;38.82;96858.31;4219167;28;5815;-64
2023/06/15 06:43:08;;;;;;;;;;;;;;;26.07;38.69;96862.63;4219456;28;6425;-64
2023/06/15 06:45:12;;;;;;;;;;;;;;;26.10;38.89;96855.81;4219318;28;5631;-64
2023/06/15 06:47:15;;;;;;;;;;;;;;;26.10;38.61;96851.19;4219597;28;5728;-64
2023/06/15 06:49:18;;;;;;;;;;;;;;;26.09;39.22;96857.72;4219229;28;5783;-64
2023/06/15 06:51:21;;;;;;;;;;;;;;;26.10;38.65;96864.75;4219284;28;5841;-64
2023/06/15 06:53:24;;;;;;;;;;;;;;;26.12;38.78;96870.69;4219470;28;5619;-64
2023/06/15 06:55:28;;;;;;;;;;;;;;;26.16;39.06;96861.97;4219261;28;5713;-64
2023/06/15 06:57:31;;;;;;;;;;;;;;;26.18;38.62;96854.38;4219205;28;5795;-64
2023/06/15 06:59:34;;;;;;;;;;;;;;;26.17;38.80;96864.41;4219269;28;5686;-64
2023/06/15 07:01:47;;;;;;;;;;;;;;;26.15;38.79;96866.56;4219111;28;5708;-64
2023/06/15 07:03:50;;;;;;;;;;;;;;;26.11;38.83;96870.97;4219177;28;5636;-64
2023/06/15 07:05:53;;;;;;;;;;;;;;;26.07;38.88;96862.63;4219034;28;5788;-64
2023/06/15 07:07:56;;;;;;;;;;;;;;;26.05;38.78;96864.03;4218647;28;5839;-65
2023/06/15 07:09:59;;;;;;;;;;;;;;;26.03;38.79;96861.56;4218975;28;5700;-64
2023/06/15 07:12:02;;;;;;;;;;;;;;;26.02;38.65;96857.25;4218756;28;6289;-63
2023/06/15 07:14:06;;;;;;;;;;;;;;;25.98;38.85;96856.25;4218442;28;5852;-65
2023/06/15 07:16:09;;;;;;;;;;;;;;;25.93;38.75;96869.81;4218476;28;5795;-64
2023/06/15 07:18:14;;;;;;;;;;;;;;;25.89;38.86;96868.00;4219051;28;5959;-64
2023/06/15 07:20:17;;;;;;;;;;;;;;;25.85;38.89;96870.50;4219059;28;5836;-64
2023/06/15 07:22:21;;;;;;;;;;;;;;;25.81;39.13;96870.25;4218720;28;5713;-64
2023/06/15 07:24:24;;;;;;;;;;;;;;;25.75;38.98;96871.41;4218952;28;5855;-64
2023/06/15 07:26:27;;;;;;;;;;;;;;;25.71;39.05;96873.09;4218950;28;5624;-64
2023/06/15 07:28:30;;;;;;;;;;;;;;;25.68;38.75;96872.81;4218534;28;5657;-64
2023/06/15 07:30:33;;;;;;;;;;;;;;;25.66;38.99;96869.59;4218845;28;5608;-64
2023/06/15 07:32:36;;;;;;;;;;;;;;;25.65;38.72;96874.19;4218761;28;5620;-63
2023/06/15 07:34:41;;;;;;;;;;;;;;;25.63;38.87;96875.59;4217727;28;5616;-63
2023/06/15 07:36:46;;;;;;;;;;;;;;;25.60;39.23;96870.75;4218776;28;5629;-64
2023/06/15 07:38:49;;;;;;;;;;;;;;;25.58;39.29;96875.63;4218494;28;5717;-64
2023/06/15 07:40:52;;;;;;;;;;;;;;;25.55;39.02;96864.28;4218529;28;5784;-64
2023/06/15 07:42:55;;;;;;;;;;;;;;;25.53;39.02;96871.09;4218400;28;5709;-63
2023/06/15 07:44:58;;;;;;;;;;;;;;;25.47;39.19;96872.22;4218639;28;5695;-63
2023/06/15 07:47:01;;;;;;;;;;;;;;;25.42;38.90;96864.16;4218674;28;5624;-64
2023/06/15 07:49:04;;;;;;;;;;;;;;;25.36;38.98;96866.09;4218610;28;5686;-64
2023/06/15 07:51:08;;;;;;;;;;;;;;;25.33;39.25;96861.25;4218930;28;5628;-64
2023/06/15 07:53:26;;;;;;;;;;;;;;;25.33;39.08;96866.69;4218586;28;5717;-64
2023/06/15 07:55:29;;;;;;;;;;;;;;;25.29;39.02;96871.06;4218419;28;5732;-64
2023/06/15 07:57:35;;;;;;;;;;;;;;;25.27;39.13;96867.84;4218156;28;5699;-64
2023/06/15 07:59:38;;;;;;;;;;;;;;;25.25;38.77;96870.78;4218506;28;5712;-64
2023/06/15 08:01:41;;;;;;;;;;;;;;;25.27;38.68;96875.16;4217773;28;5713;-64
2023/06/15 08:03:44;;;;;;;;;;;;;;;25.27;39.00;96875.94;4217929;28;5799;-64
2023/06/15 08:05:47;;;;;;;;;;;;;;;25.27;39.02;96873.25;4217694;28;5702;-64
2023/06/15 08:07:51;;;;;;;;;;;;;;;25.27;38.71;96872.44;4218145;28;5628;-64
2023/06/15 08:09:54;;;;;;;;;;;;;;;25.25;39.07;96870.00;4218307;28;5682;-64
2023/06/15 08:11:57;;;;;;;;;;;;;;;25.23;38.94;96866.78;4218271;28;5651;-64
2023/06/15 08:14:00;;;;;;;;;;;;;;;25.21;38.85;96869.75;4217941;28;5723;-64
2023/06/15 08:16:03;;;;;;;;;;;;;;;25.16;39.08;96877.13;4217998;28;5104;-64
2023/06/15 08:18:06;;;;;;;;;;;;;;;25.15;38.54;96865.50;4218350;28;5712;-64
2023/06/15 08:20:10;;;;;;;;;;;;;;;25.16;38.74;96869.03;4218185;28;5716;-64
2023/06/15 08:22:14;;;;;;;;;;;;;;;25.15;38.69;96870.91;4218148;28;5739;-65
2023/06/15 08:24:18;;;;;;;;;;;;;;;25.18;38.67;96866.84;4217872;28;5733;-64
2023/06/15 08:26:22;;;;;;;;;;;;;;;25.18;38.66;96864.94;4218193;28;5717;-63
2023/06/15 08:28:25;;;;;;;;;;;;;;;25.20;38.69;96870.84;4217703;28;5768;-64
2023/06/15 08:30:28;;;;;;;;;;;;;;;25.22;38.81;96870.56;4218049;28;5611;-63
2023/06/15 08:32:31;;;;;;;;;;;;;;;25.20;38.83;96870.06;4217922;28;5871;-63
2023/06/15 08:34:34;;;;;;;;;;;;;;;25.17;38.51;96874.16;4218037;28;5839;-63
2023/06/15 08:36:37;;;;;;;;;;;;;;;25.12;38.48;96870.66;4217822;28;5717;-63
2023/06/15 08:38:40;;;;;;;;;;;;;;;25.07;38.77;96874.22;4217827;28;5712;-63
2023/06/15 08:40:46;;;;;;;;;;;;;;;25.09;38.79;96873.94;4217587;28;5197;-63
2023/06/15 08:42:51;;;;;;;;;;;;;;;25.12;38.70;96878.78;4217652;28;5729;-64
2023/06/15 08:44:55;;;;;;;;;;;;;;;25.13;38.96;96873.06;4217793;28;5898;-63
2023/06/15 08:46:58;;;;;;;;;;;;;;;25.13;38.80;96872.28;4201035;28;5659;-63
2023/06/15 08:49:03;;;;;;;;;;;;;;;25.13;38.80;96873.06;4217915;28;5703;-63
2023/06/15 08:51:08;;;;;;;;;;;;;;;25.13;38.65;96872.28;4217508;28;5720;-64
2023/06/15 08:53:13;;;;;;;;;;;;;;;25.15;38.40;96867.41;4217722;28;5076;-63
2023/06/15 08:55:18;;;;;;;;;;;;;;;25.17;38.59;96876.03;4218005;28;5804;-63
2023/06/15 08:57:23;;;;;;;;;;;;;;;25.18;38.70;96872.25;4217676;28;5811;-63
2023/06/15 08:59:26;;;;;;;;;;;;;;;25.19;38.34;96871.97;4217656;28;5891;-63
2023/06/15 09:01:32;;;;;;;;;;;;;;;25.19;38.80;96876.56;4217660;28;5633;-64
2023/06/15 09:03:36;;;;;;;;;;;;;;;25.19;38.38;96871.97;4217220;28;5779;-63
2023/06/15 09:05:39;;;;;;;;;;;;;;;25.18;38.21;96875.75;4217445;28;5687;-63
2023/06/15 09:07:42;;;;;;;;;;;;;;;25.19;38.73;96871.97;4217530;28;6490;-63
2023/06/15 09:10:13;;;;;;;;;;;;;;;25.20;38.48;96872.75;4217678;28;5628;-63
2023/06/15 09:12:19;;;;;;;;;;;;;;;25.21;38.25;96868.97;4217114;28;5784;-63
2023/06/15 09:14:23;;;;;;;;;;;;;;;25.16;38.63;96871.72;4217588;28;5712;-63
2023/06/15 09:16:32;;;;;;;;;;;;;;;25.14;38.46;96871.19;4217639;28;5715;-63
2023/06/15 09:18:46;;;;;;;;;;;;;;;25.19;37.80;96874.66;4217536;28;5753;-63
2023/06/15 09:20:49;;;;;;;;;;;;;;;25.22;37.84;96865.97;4217457;28;5683;-63
2023/06/15 09:22:53;;;;;;;;;;;;;;;25.24;37.71;96868.38;4217114;28;5604;-63
2023/06/15 09:24:56;;;;;;;;;;;;;;;25.27;37.92;96867.03;4217496;28;5845;-61
2023/06/15 09:26:59;;;;;;;;;;;;;;;25.29;37.55;96864.84;4217569;28;5611;-63
2023/06/15 09:29:02;;;;;;;;;;;;;;;25.28;38.09;96869.44;4217416;28;5619;-63
2023/06/15 09:31:07;;;;;;;;;;;;;;;25.31;37.58;96863.47;4217552;28;5636;-64
2023/06/15 09:33:12;;;;;;;;;;;;;;;25.32;37.59;96861.56;4217578;28;6384;-63
2023/06/15 09:35:16;;;;;;;;;;;;;;;25.33;37.91;96872.09;4217552;28;5625;-63
2023/06/15 09:37:19;;;;;;;;;;;;;;;25.31;37.85;96863.47;4217319;28;5703;-63
2023/06/15 09:39:23;;;;;;;;;;;;;;;25.33;37.34;96866.69;4217375;28;5725;-63
2023/06/15 09:41:26;;;;;;;;;;;;;;;25.36;37.65;96868.81;4217300;28;5792;-65
2023/06/15 09:43:33;;;;;;;;;;;;;;;25.42;37.72;96869.56;4217062;28;5725;-64
2023/06/15 09:45:36;;;;;;;;;;;;;;;25.41;37.54;96874.19;4217653;28;5723;-64
2023/06/15 09:47:41;;;;;;;;;;;;;;;25.44;37.64;96873.59;4217266;28;5800;-64
2023/06/15 09:49:45;;;;;;;;;;;;;;;25.44;37.45;96873.59;4217507;28;5358;-64
2023/06/15 09:51:50;;;;;;;;;;;;;;;25.47;37.41;96873.03;4216910;28;5712;-64
2023/06/15 09:53:54;;;;;;;;;;;;;;;25.51;37.41;96870.56;4217321;28;5721;-63
2023/06/15 09:55:59;;;;;;;;;;;;;;;25.56;37.34;96867.78;4217201;28;5720;-64
2023/06/15 09:58:02;;;;;;;;;;;;;;;25.60;37.15;96865.34;4217837;28;5716;-64
2023/06/15 10:00:08;;;;;;;;;;;;;;;25.63;37.42;96867.47;4220268;28;5817;-64
2023/06/15 10:02:12;;;;;;;;;;;;;;;25.62;37.19;96868.56;4220517;28;5620;-64
2023/06/15 10:04:19;;;;;;;;;;;;;;;25.59;37.01;96869.91;4220302;28;5607;-64
2023/06/15 10:06:25;;;;;;;;;;;;;;;25.59;37.08;96867.22;4220333;28;5675;-65
2023/06/15 10:08:31;;;;;;;;;;;;;;;25.58;37.21;96872.91;4220083;28;5768;-64
2023/06/15 10:10:36;;;;;;;;;;;;;;;25.59;36.96;96869.13;4220020;28;5898;-64
2023/06/15 10:12:43;;;;;;;;;;;;;;;25.61;37.19;96866.94;4219674;28;5705;-64
2023/06/15 10:14:50;;;;;;;;;;;;;;;25.65;37.29;96865.28;4219870;28;5873;-64
2023/06/15 10:17:00;;;;;;;;;;;;;;;25.64;37.13;96863.66;4220179;28;5608;-64
2023/06/15 10:19:06;;;;;;;;;;;;;;;25.68;37.18;96867.41;4212669;28;5597;-64
2023/06/15 10:21:14;;;;;;;;;;;;;;;25.70;37.05;96865.22;4219748;28;5894;-64
2023/06/15 10:23:23;;;;;;;;;;;;;;;25.73;37.30;96861.97;4219802;28;5802;-64
2023/06/15 10:25:43;;;;;;;;;;;;;;;25.75;36.85;96859.78;4219941;28;5627;-64
2023/06/15 10:27:48;;;;;;;;;;;;;;;25.77;37.15;96865.69;4220027;28;5766;-64
2023/06/15 10:30:01;;;;;;;;;;;;;;;25.78;37.03;96868.13;4219693;28;5122;-64
2023/06/15 10:32:13;;;;;;;;;;;;;;;25.84;36.97;96866.16;4219867;28;5717;-64
2023/06/15 10:34:24;;;;;;;;;;;;;;;25.88;36.52;96852.84;4219743;28;5616;-65
2023/06/15 10:36:30;;;;;;;;;;;;;;;25.95;36.52;96864.94;4219930;28;5608;-64
2023/06/15 10:38:42;;;;;;;;;;;;;;;26.00;36.68;96864.06;4219933;28;5698;-64
2023/06/15 10:40:48;;;;;;;;;;;;;;;26.03;36.88;96858.88;4219463;28;5811;-64
2023/06/15 10:42:52;;;;;;;;;;;;;;;26.03;36.62;96864.28;4219664;28;6430;-64
2023/06/15 10:44:59;;;;;;;;;;;;;;;26.01;36.61;96861.06;4219596;28;5796;-63
2023/06/15 10:47:09;;;;;;;;;;;;;;;26.03;36.49;96863.47;4219447;28;5948;-65
2023/06/15 10:49:12;;;;;;;;;;;;;;;26.06;36.42;96860.22;4219604;28;5833;-64
2023/06/15 10:51:15;;;;;;;;;;;;;;;26.10;36.37;96853.91;4219527;28;5733;-64
2023/06/15 10:53:24;;;;;;;;;;;;;;;26.11;36.25;96860.94;4219598;28;6307;-64
2023/06/15 10:55:28;;;;;;;;;;;;;;;26.13;36.30;96858.75;4219219;28;5615;-64
2023/06/15 10:57:36;;;;;;;;;;;;;;;26.16;36.27;96853.84;4219086;28;5724;-63
2023/06/15 10:59:42;;;;;;;;;;;;;;;26.18;36.01;96849.75;4219543;28;5604;-65
2023/06/15 11:01:45;;;;;;;;;;;;;;;26.22;35.68;96858.09;4219466;28;5193;-65
2023/06/15 11:03:48;;;;;;;;;;;;;;;26.22;35.72;96856.19;4219421;28;5628;-64
2023/06/15 11:06:01;;;;;;;;;;;;;;;26.23;35.42;96851.56;4219324;28;6033;-64
2023/06/15 11:08:17;;;;;;;;;;;;;;;26.20;35.64;96863.00;4212259;28;5611;-64
2023/06/15 11:10:27;;;;;;;;;;;;;;;26.18;35.06;96854.38;4219364;28;5628;-64
2023/06/15 11:12:33;;;;;;;;;;;;;;;26.16;35.04;96851.13;4218880;28;5612;-64
2023/06/15 11:14:36;;;;;;;;;;;;;;;26.16;35.52;96856.53;4219129;28;5612;-64
2023/06/15 11:16:40;;;;;;;;;;;;;;;26.18;35.38;96865.22;4219352;28;5737;-64
2023/06/15 11:19:12;;;;;;;;;;;;;;;26.19;35.35;96855.97;4218928;28;5762;-64
2023/06/15 11:21:25;;;;;;;;;;;;;;;26.21;35.23;96859.19;4197880;28;5983;-64
2023/06/15 11:23:32;;;;;;;;;;;;;;;26.24;35.30;96850.47;4202257;28;5753;-64
2023/06/15 11:25:37;;;;;;;;;;;;;;;26.26;35.05;96846.38;4207622;28;7675;-65
2023/06/15 11:27:42;;;;;;;;;;;;;;;26.29;34.94;96847.72;4218601;28;5615;-64
2023/06/15 11:29:45;;;;;;;;;;;;;;;26.31;34.97;96849.03;4218811;28;5716;-64
2023/06/15 11:31:49;;;;;;;;;;;;;;;26.35;35.03;96843.81;4219150;28;5750;-64
2023/06/15 11:33:52;;;;;;;;;;;;;;;26.39;35.19;96844.91;4218973;28;5712;-64
2023/06/15 11:35:55;;;;;;;;;;;;;;;26.46;34.83;96845.31;4218958;28;5716;-64
2023/06/15 11:37:58;;;;;;;;;;;;;;;26.50;34.81;96843.63;4218900;28;5785;-64
2023/06/15 11:40:04;;;;;;;;;;;;;;;26.54;34.42;96841.94;4218760;28;5795;-64
2023/06/15 11:42:17;;;;;;;;;;;;;;;26.59;34.54;96841.84;4218484;28;5604;-64
2023/06/15 11:44:22;;;;;;;;;;;;;;;26.63;34.51;96839.38;4218520;28;5724;-64
2023/06/15 11:46:26;;;;;;;;;;;;;;;26.66;34.07;96831.47;4218487;28;5604;-64
2023/06/15 11:48:30;;;;;;;;;;;;;;;26.69;34.33;96830.84;4218784;28;5791;-64
2023/06/15 11:50:34;;;;;;;;;;;;;;;26.71;34.06;96825.13;4218477;28;5620;-64
2023/06/15 11:52:43;;;;;;;;;;;;;;;26.73;34.12;96835.69;4218760;28;5604;-64
2023/06/15 11:54:46;;;;;;;;;;;;;;;26.75;33.69;96831.59;4218254;28;6461;-64
2023/06/15 11:56:57;;;;;;;;;;;;;;;26.75;34.07;96837.03;4218719;28;5709;-64
2023/06/15 11:59:01;;;;;;;;;;;;;;;26.74;34.03;96835.41;4218281;28;5803;-65
2023/06/15 12:01:04;;;;;;;;;;;;;;;26.73;34.01;96832.97;4218290;28;5810;-64
2023/06/15 12:03:11;;;;;;;;;;;;;;;26.72;33.87;96831.34;4218154;28;5675;-64
2023/06/15 12:05:17;;;;;;;;;;;;;;;26.74;34.01;96831.91;4218234;28;5703;-64
2023/06/15 12:07:20;;;;;;;;;;;;;;;26.75;34.12;96825.38;4218452;28;5679;-64
2023/06/15 12:09:38;;;;;;;;;;;;;;;26.76;33.75;96826.97;4218238;28;5624;-64
2023/06/15 12:11:41;;;;;;;;;;;;;;;26.77;33.81;96823.16;4217829;28;5705;-64
2023/06/15 12:13:44;;;;;;;;;;;;;;;26.80;34.16;96817.94;4218021;28;5623;-64
2023/06/15 12:15:50;;;;;;;;;;;;;;;26.82;34.01;96820.34;4218030;28;5708;-64
2023/06/15 12:17:56;;;;;;;;;;;;;;;26.82;34.37;96812.22;4218083;28;5612;-64
2023/06/15 12:20:00;;;;;;;;;;;;;;;26.83;34.25;96817.34;4218203;28;5726;-64
2023/06/15 12:22:08;;;;;;;;;;;;;;;26.85;34.59;96817.06;4217476;28;5624;-64
2023/06/15 12:24:15;;;;;;;;;;;;;;;26.87;34.76;96812.16;4217769;28;5769;-65
2023/06/15 12:26:19;;;;;;;;;;;;;;;26.87;34.90;96815.66;4217832;28;5716;-64
2023/06/15 12:28:23;;;;;;;;;;;;;;;26.85;34.99;96814.34;4217655;28;5731;-64
2023/06/15 12:30:26;;;;;;;;;;;;;;;26.82;35.02;96813.03;4217770;28;5703;-64
2023/06/15 12:32:31;;;;;;;;;;;;;;;26.80;35.51;96812.50;4217836;28;6326;-64
2023/06/15 12:34:40;;;;;;;;;;;;;;;26.78;35.51;96817.44;4218127;28;5627;-64
2023/06/15 12:36:44;;;;;;;;;;;;;;;26.75;35.94;96809.91;4218173;28;5717;-64
2023/06/15 12:38:50;;;;;;;;;;;;;;;26.76;36.02;96822.34;4217964;28;5732;-64
2023/06/15 12:40:53;;;;;;;;;;;;;;;26.74;36.17;96812.91;4217425;28;5703;-65
2023/06/15 12:42:58;;;;;;;;;;;;;;;26.75;36.02;96814.53;4209175;28;5873;-66
2023/06/15 12:45:01;;;;;;;;;;;;;;;26.76;35.98;96800.66;4217532;28;5865;-64
2023/06/15 12:47:04;;;;;;;;;;;;;;;26.76;35.93;96802.56;4199378;28;5833;-65
2023/06/15 12:49:10;;;;;;;;;;;;;;;26.79;36.11;96799.25;4217612;28;5636;-65
2023/06/15 12:51:13;;;;;;;;;;;;;;;26.83;36.09;96805.69;4217835;28;5612;-65
2023/06/15 12:53:16;;;;;;;;;;;;;;;26.85;36.08;96800.78;4217896;28;5612;-64
2023/06/15 12:55:19;;;;;;;;;;;;;;;26.86;35.88;96802.41;4217821;28;5640;-64
2023/06/15 12:57:23;;;;;;;;;;;;;;;26.88;35.40;96817.28;4217630;28;5619;-65
2023/06/15 12:59:26;;;;;;;;;;;;;;;26.88;35.42;96802.91;4217509;28;5720;-66
2023/06/15 13:01:29;;;;;;;;;;;;;;;26.88;35.27;96809.13;4217639;28;5616;-65
2023/06/15 13:03:32;;;;;;;;;;;;;;;26.90;35.38;96809.63;4216244;28;5723;-65
2023/06/15 13:05:37;;;;;;;;;;;;;;;26.87;35.24;96806.72;4217492;28;5725;-65
2023/06/15 13:07:41;;;;;;;;;;;;;;;26.87;35.00;96801.28;4217329;28;5685;-65
2023/06/15 13:09:44;;;;;;;;;;;;;;;26.88;34.88;96797.47;4217132;28;5593;-64
2023/06/15 13:11:47;;;;;;;;;;;;;;;26.90;35.05;96796.06;4217264;28;5640;-63
2023/06/15 13:13:50;;;;;;;;;;;;;;;26.93;34.63;96798.19;4217106;28;5600;-64
2023/06/15 13:15:54;;;;;;;;;;;;;;;26.95;34.54;96803.31;4217275;28;6398;-64
2023/06/15 13:17:57;;;;;;;;;;;;;;;26.98;34.11;96797.31;4217186;28;5624;-64
2023/06/15 13:20:00;;;;;;;;;;;;;;;26.98;34.09;96791.88;4217463;28;5724;-64
2023/06/15 13:22:05;;;;;;;;;;;;;;;27.01;33.94;96796.69;4216998;28;5628;-64
2023/06/15 13:24:08;;;;;;;;;;;;;;;27.03;34.08;96793.72;4217245;28;5833;-63
2023/06/15 13:26:11;;;;;;;;;;;;;;;27.04;33.66;96789.91;4217323;28;5745;-64
2023/06/15 13:28:13;;;;;;;;;;;;;;;27.06;33.65;96787.69;4216886;28;5978;-64
2023/06/15 13:30:17;;;;;;;;;;;;;;;27.04;33.59;96779.03;4217456;28;5716;-64
2023/06/15 13:32:21;;;;;;;;;;;;;;;27.06;33.12;96788.50;4217537;28;5705;-64
2023/06/15 13:34:24;;;;;;;;;;;;;;;27.07;33.17;96790.13;4220327;28;5696;-64
2023/06/15 13:36:27;;;;;;;;;;;;;;;27.07;33.22;96783.88;4220748;28;5612;-64
2023/06/15 13:38:31;;;;;;;;;;;;;;;27.08;33.19;96788.22;4220603;28;5605;-64
2023/06/15 13:40:34;;;;;;;;;;;;;;;27.11;32.83;96791.13;4220183;28;5720;-64
2023/06/15 13:42:39;;;;;;;;;;;;;;;27.13;32.82;96783.50;4219971;28;5759;-64
2023/06/15 13:44:42;;;;;;;;;;;;;;;27.17;32.61;96780.97;4219994;28;5833;-64
2023/06/15 13:46:45;;;;;;;;;;;;;;;27.22;32.45;96783.59;4220427;28;5811;-64
2023/06/15 13:48:48;;;;;;;;;;;;;;;27.25;32.56;96791.13;4220511;28;5721;-64
2023/06/15 13:50:51;;;;;;;;;;;;;;;27.26;32.39;96790.03;4220082;28;5720;-64
2023/06/15 13:52:54;;;;;;;;;;;;;;;27.26;32.09;96790.03;4220493;28;5817;-64
2023/06/15 13:54:58;;;;;;;;;;;;;;;27.26;32.30;96782.69;4220475;28;5830;-64
2023/06/15 13:57:01;;;;;;;;;;;;;;;27.22;31.98;96781.69;4220322;28;5789;-64
2023/06/15 13:59:04;;;;;;;;;;;;;;;27.22;31.77;96786.31;4219974;28;5616;-64
2023/06/15 14:01:07;;;;;;;;;;;;;;;27.20;31.64;96783.91;4220206;28;5771;-64
2023/06/15 14:03:10;;;;;;;;;;;;;;;27.21;31.92;96785.50;4220270;28;5809;-64
2023/06/15 14:05:13;;;;;;;;;;;;;;;27.20;31.92;96781.19;4219969;28;5667;-64
2023/06/15 14:07:17;;;;;;;;;;;;;;;27.20;31.81;96786.63;4220073;28;5611;-64
2023/06/15 14:09:20;;;;;;;;;;;;;;;27.21;31.70;96780.09;4220061;28;5725;-65
2023/06/15 14:11:25;;;;;;;;;;;;;;;27.23;31.84;96777.06;4219830;28;5612;-64
2023/06/15 14:13:28;;;;;;;;;;;;;;;27.24;31.69;96778.69;4219914;28;5617;-65
2023/06/15 14:15:31;;;;;;;;;;;;;;;27.27;31.59;96778.06;4218890;28;5619;-63
2023/06/15 14:17:34;;;;;;;;;;;;;;;27.30;31.85;96782.13;4219892;28;5695;-64
2023/06/15 14:19:38;;;;;;;;;;;;;;;27.33;31.56;96781.50;4201703;28;5679;-64
2023/06/15 14:21:41;;;;;;;;;;;;;;;27.34;31.50;96781.19;4219368;28;5713;-64
2023/06/15 14:23:44;;;;;;;;;;;;;;;27.33;31.43;96781.50;4215112;28;5749;-64
2023/06/15 14:25:48;;;;;;;;;;;;;;;27.35;31.50;96790.94;4214883;28;5616;-64
2023/06/15 14:27:53;;;;;;;;;;;;;;;27.37;31.34;96787.94;4212030;28;6326;-64
2023/06/15 14:29:56;;;;;;;;;;;;;;;27.34;31.28;96786.63;4216899;28;5783;-64
2023/06/15 14:31:59;;;;;;;;;;;;;;;27.33;31.21;96789.66;4209362;28;5631;-64
2023/06/15 14:34:02;;;;;;;;;;;;;;;27.31;30.95;96786.44;4213570;28;6355;-64
2023/06/15 14:36:05;;;;;;;;;;;;;;;27.30;31.17;96788.34;4218405;28;5707;-64
2023/06/15 14:38:08;;;;;;;;;;;;;;;27.30;30.89;96792.97;4213681;28;5615;-64
2023/06/15 14:40:11;;;;;;;;;;;;;;;27.30;30.95;96787.53;4212660;28;5630;-64
2023/06/15 14:42:15;;;;;;;;;;;;;;;27.28;30.85;96791.34;4212096;28;5801;-64
2023/06/15 14:44:19;;;;;;;;;;;;;;;27.27;30.76;96791.63;4213878;28;5817;-64
2023/06/15 14:46:22;;;;;;;;;;;;;;;27.25;30.88;96786.50;4215135;28;5734;-64
2023/06/15 14:48:25;;;;;;;;;;;;;;;27.24;30.51;96793.06;4213873;28;5695;-64
2023/06/15 14:50:28;;;;;;;;;;;;;;;27.24;30.73;96792.25;4216567;28;5937;-64
2023/06/15 14:52:34;;;;;;;;;;;;;;;27.22;30.57;96786.31;4211230;28;5727;-64
2023/06/15 14:54:37;;;;;;;;;;;;;;;27.22;30.57;96783.59;4213288;28;5718;-64
2023/06/15 14:56:41;;;;;;;;;;;;;;;27.24;30.60;96784.91;4217069;28;5676;-67
2023/06/15 14:58:44;;;;;;;;;;;;;;;27.25;30.77;96785.72;4211233;28;5728;-69
2023/06/15 15:00:48;;;;;;;;;;;;;;;27.24;30.79;96787.63;4206641;28;5722;-71
2023/06/15 15:02:51;;;;;;;;;;;;;;;27.25;30.66;96781.09;4210148;28;5746;-70
2023/06/15 15:04:54;;;;;;;;;;;;;;;27.24;30.62;96781.38;4207413;28;5683;-67
2023/06/15 15:06:57;;;;;;;;;;;;;;;27.26;30.57;96784.59;4206153;28;5702;-66
2023/06/15 15:09:00;;;;;;;;;;;;;;;27.27;30.41;96773.44;4206503;28;5772;-70
2023/06/15 15:11:04;;;;;;;;;;;;;;;27.29;30.10;96775.84;4211899;28;5718;-71
2023/06/15 15:13:07;;;;;;;;;;;;;;;27.28;30.34;96772.34;4208695;28;5698;-69
2023/06/15 15:15:10;;;;;;;;;;;;;;;27.28;30.05;96768.81;4210616;28;5842;-68
2023/06/15 15:17:15;;;;;;;;;;;;;;;27.26;29.92;96766.41;4212391;28;5711;-70
2023/06/15 15:19:18;;;;;;;;;;;;;;;27.27;30.26;96775.34;4209236;28;5612;-71
2023/06/15 15:21:26;;;;;;;;;;;;;;;27.28;30.17;96764.19;4210018;28;5858;-69
2023/06/15 15:23:29;;;;;;;;;;;;;;;27.31;29.64;96767.44;4215413;28;5721;-71
2023/06/15 15:25:32;;;;;;;;;;;;;;;27.32;29.99;96771.75;4217597;28;5695;-66
2023/06/15 15:27:35;;;;;;;;;;;;;;;27.33;29.66;96770.66;4210497;28;5803;-66
2023/06/15 15:29:38;;;;;;;;;;;;;;;27.33;29.65;96767.94;4208102;28;5786;-70
2023/06/15 15:31:41;;;;;;;;;;;;;;;27.35;29.72;96766.53;4207830;28;5834;-67
2023/06/15 15:33:45;;;;;;;;;;;;;;;27.34;29.59;96772.25;4204397;28;5959;-70
2023/06/15 15:35:51;;;;;;;;;;;;;;;27.33;29.54;96768.75;4218066;28;5771;-70
2023/06/15 15:37:54;;;;;;;;;;;;;;;27.33;29.60;96765.22;4214445;28;6355;-71
2023/06/15 15:39:57;;;;;;;;;;;;;;;27.35;29.48;96768.44;4208524;28;5879;-68
2023/06/15 15:42:00;;;;;;;;;;;;;;;27.34;29.73;96767.63;4217117;28;5833;-66
2023/06/15 15:44:03;;;;;;;;;;;;;;;27.37;29.35;96767.03;4216757;28;5116;-71
2023/06/15 15:46:05;;;;;;;;;;;;;;;27.38;29.66;96763.19;4217515;28;5843;-72
2023/06/15 15:48:09;;;;;;;;;;;;;;;27.41;29.58;96767.22;4217310;28;5712;-72
2023/06/15 15:50:13;;;;;;;;;;;;;;;27.44;29.41;96772.06;4217624;28;6334;-66
2023/06/15 15:52:16;;;;;;;;;;;;;;;27.46;29.46;96769.84;4217452;28;5612;-70
2023/06/15 15:54:19;;;;;;;;;;;;;;;27.45;29.67;96763.59;4217510;28;5613;-67
2023/06/15 15:56:22;;;;;;;;;;;;;;;27.47;29.59;96766.03;4216765;28;5734;-71
2023/06/15 15:58:26;;;;;;;;;;;;;;;27.45;29.37;96758.19;4216879;28;5724;-66
2023/06/15 16:00:30;;;;;;;;;;;;;;;27.46;29.70;96761.69;4215583;28;5585;-71
2023/06/15 16:02:36;;;;;;;;;;;;;;;27.46;29.67;96753.56;4211327;28;5874;-70
2023/06/15 16:04:39;;;;;;;;;;;;;;;27.45;29.64;96757.38;4212685;28;6413;-67
2023/06/15 16:06:44;;;;;;;;;;;;;;;27.42;29.60;96758.78;4211775;28;5758;-72
2023/06/15 16:08:47;;;;;;;;;;;;;;;27.41;29.66;96770.75;4207766;28;5638;-72
2023/06/15 16:10:50;;;;;;;;;;;;;;;27.42;29.53;96768.84;4215649;28;5699;-65
2023/06/15 16:12:53;;;;;;;;;;;;;;;27.39;29.98;96762.09;4214271;28;5628;-67
2023/06/15 16:14:56;;;;;;;;;;;;;;;27.38;29.37;96762.41;4209723;28;5691;-71
2023/06/15 16:16:59;;;;;;;;;;;;;;;27.38;29.65;96759.69;4212299;28;5719;-68
2023/06/15 16:19:06;;;;;;;;;;;;;;;27.36;29.48;96762.69;4210756;28;5942;-71